createdAt,value
2019-02-28T00:01:51.659Z,6.58
2019-02-28T00:04:58.602Z,5.30
2019-02-28T00:08:05.544Z,6.45
2019-02-28T00:11:12.423Z,8.70
2019-02-28T00:14:19.416Z,6.50
2019-02-28T00:17:26.469Z,5.75
2019-02-28T00:20:33.490Z,4.70
2019-02-28T00:23:40.395Z,6.12
2019-02-28T00:26:47.942Z,5.72
2019-02-28T00:29:55.006Z,5.87
2019-02-28T00:33:01.974Z,5.12
2019-02-28T00:36:08.855Z,5.62
2019-02-28T00:39:15.743Z,6.05
2019-02-28T00:42:24.422Z,6.22
2019-02-28T00:45:36.256Z,5.20
2019-02-28T00:48:39.990Z,6.30
2019-02-28T00:51:47.686Z,5.30
2019-02-28T00:54:54.469Z,7.30
2019-02-28T00:58:01.423Z,6.58
2019-02-28T01:01:11.547Z,6.08
2019-02-28T01:04:16.919Z,5.87
2019-02-28T01:07:24.030Z,6.40
2019-02-28T01:10:31.177Z,6.60
2019-02-28T01:13:38.029Z,8.53
2019-02-28T01:16:44.817Z,6.60
2019-02-28T01:19:52.529Z,7.53
2019-02-28T01:23:01.978Z,6.70
2019-02-28T01:26:11.796Z,7.25
2019-02-28T01:29:17.328Z,5.83
2019-02-28T01:32:24.565Z,9.45
2019-02-28T01:35:33.175Z,5.85
2019-02-28T01:38:40.045Z,5.87
2019-02-28T01:41:52.141Z,5.85
2019-02-28T01:45:02.065Z,7.40
2019-02-28T01:48:10.174Z,6.00
2019-02-28T01:51:17.371Z,5.55
2019-02-28T01:54:25.121Z,8.13
2019-02-28T01:57:33.342Z,8.18
2019-02-28T02:00:40.252Z,5.45
2019-02-28T02:03:48.811Z,6.08
2019-02-28T02:06:59.672Z,8.08
2019-02-28T02:10:07.134Z,8.33
2019-02-28T02:13:14.018Z,8.03
2019-02-28T02:16:26.771Z,8.05
2019-02-28T02:19:30.165Z,7.25
2019-02-28T02:22:37.167Z,8.55
2019-02-28T02:25:43.959Z,5.78
2019-02-28T02:28:50.834Z,9.90
2019-02-28T02:32:01.193Z,7.78
2019-02-28T02:35:08.378Z,7.25
2019-02-28T02:38:15.478Z,6.17
2019-02-28T02:41:22.491Z,6.47
2019-02-28T02:44:31.811Z,6.78
2019-02-28T02:47:37.969Z,4.67
2019-02-28T02:50:44.914Z,7.45
2019-02-28T02:53:51.911Z,7.35
2019-02-28T02:56:59.132Z,8.25
2019-02-28T03:00:13.295Z,5.67
2019-02-28T03:03:19.716Z,6.78
2019-02-28T03:06:26.680Z,7.95
2019-02-28T03:09:33.561Z,7.35
2019-02-28T03:12:40.454Z,8.90
2019-02-28T03:15:47.360Z,4.92
2019-02-28T03:18:58.000Z,8.25
2019-02-28T03:22:02.959Z,6.30
2019-02-28T03:25:11.611Z,6.22
2019-02-28T03:28:22.999Z,6.53
2019-02-28T03:31:29.917Z,5.40
2019-02-28T03:34:36.780Z,7.80
2019-02-28T03:37:45.572Z,4.65
2019-02-28T03:40:52.449Z,6.92
2019-02-28T03:43:59.368Z,7.28
2019-02-28T03:47:06.241Z,5.15
2019-02-28T03:50:13.446Z,5.62
2019-02-28T03:53:21.137Z,6.75
2019-02-28T03:56:28.247Z,4.90
2019-02-28T03:59:35.510Z,7.72
2019-02-28T04:02:42.410Z,8.20
2019-02-28T04:05:49.389Z,6.50
2019-02-28T04:08:56.202Z,7.30
2019-02-28T04:12:07.272Z,7.17
2019-02-28T04:15:13.827Z,8.48
2019-02-28T04:18:20.604Z,7.05
2019-02-28T04:21:27.509Z,6.35
2019-02-28T04:24:34.468Z,5.85
2019-02-28T04:27:41.813Z,7.97
2019-02-28T04:30:48.854Z,6.33
2019-02-28T04:33:55.672Z,9.03
2019-02-28T04:37:02.665Z,8.68
2019-02-28T04:40:09.799Z,9.18
2019-02-28T04:43:16.974Z,6.10
2019-02-28T04:46:24.055Z,6.55
2019-02-28T04:49:32.170Z,5.75
2019-02-28T04:52:39.078Z,5.72
2019-02-28T04:55:45.966Z,4.50
2019-02-28T04:58:52.836Z,6.70
2019-02-28T05:02:00.011Z,6.72
2019-02-28T05:05:12.090Z,6.85
2019-02-28T05:08:16.329Z,5.90
2019-02-28T05:11:27.424Z,7.05
2019-02-28T05:14:33.017Z,7.08
2019-02-28T05:17:39.826Z,7.97
2019-02-28T05:20:57.770Z,7.00
2019-02-28T05:24:07.728Z,8.33
2019-02-28T05:27:13.884Z,7.12
2019-02-28T05:30:21.276Z,7.90
2019-02-28T05:33:28.213Z,10.23
2019-02-28T05:36:37.882Z,8.10
2019-02-28T05:39:43.759Z,8.60
2019-02-28T05:42:50.738Z,7.78
2019-02-28T05:45:59.391Z,9.10
2019-02-28T05:49:08.733Z,12.23
2019-02-28T05:52:17.423Z,8.70
2019-02-28T05:55:25.688Z,7.60
2019-02-28T05:58:32.827Z,8.93
2019-02-28T06:01:39.642Z,8.30
2019-02-28T06:04:48.798Z,8.58
2019-02-28T06:07:55.703Z,9.58
2019-02-28T06:11:02.456Z,8.60
2019-02-28T06:14:09.351Z,6.25
2019-02-28T06:17:17.330Z,10.15
2019-02-28T06:20:25.051Z,8.58
2019-02-28T06:23:31.914Z,11.22
2019-02-28T06:26:38.833Z,7.12
2019-02-28T06:29:45.791Z,7.03
2019-02-28T06:32:57.823Z,6.60
2019-02-28T06:36:01.205Z,10.88
2019-02-28T06:39:09.124Z,8.33
2019-02-28T06:42:16.232Z,10.95
2019-02-28T06:45:23.057Z,9.10
2019-02-28T06:48:29.915Z,8.85
2019-02-28T06:51:36.862Z,7.20
2019-02-28T06:54:43.706Z,7.58
2019-02-28T06:57:51.824Z,10.55
2019-02-28T07:00:58.574Z,6.12
2019-02-28T07:04:05.460Z,7.53
2019-02-28T07:07:13.713Z,8.13
2019-02-28T07:10:20.800Z,8.60
2019-02-28T07:13:27.710Z,10.65
2019-02-28T07:16:37.785Z,6.58
2019-02-28T07:19:43.564Z,8.18
2019-02-28T07:22:54.709Z,8.95
2019-02-28T07:25:59.328Z,10.78
2019-02-28T07:29:11.066Z,7.08
2019-02-28T07:32:15.835Z,9.70
2019-02-28T07:35:22.755Z,10.05
2019-02-28T07:38:29.782Z,7.92
2019-02-28T07:41:36.611Z,8.50
2019-02-28T07:44:43.405Z,6.80
2019-02-28T07:47:52.784Z,9.18
2019-02-28T07:50:59.339Z,9.33
2019-02-28T07:54:06.576Z,7.10
2019-02-28T07:57:17.005Z,8.15
2019-02-28T08:00:22.411Z,10.88
2019-02-28T08:03:29.542Z,7.12
2019-02-28T08:06:39.236Z,9.35
2019-02-28T08:09:45.217Z,11.97
2019-02-28T08:12:52.226Z,11.12
2019-02-28T08:16:00.330Z,10.75
2019-02-28T08:19:08.991Z,9.68
2019-02-28T08:22:15.862Z,8.88
2019-02-28T08:25:22.747Z,9.35
2019-02-28T08:28:35.848Z,13.05
2019-02-28T08:31:41.067Z,9.50
2019-02-28T08:34:47.975Z,10.50
2019-02-28T08:37:57.294Z,11.08
2019-02-28T08:41:06.432Z,12.07
2019-02-28T08:44:13.498Z,14.25
2019-02-28T08:47:22.057Z,9.15
2019-02-28T08:50:28.983Z,13.93
2019-02-28T08:53:35.839Z,14.73
2019-02-28T08:56:42.745Z,17.42
2019-02-28T08:59:52.524Z,18.48
2019-02-28T09:02:58.327Z,14.00
2019-02-28T09:06:07.483Z,18.37
2019-02-28T09:09:15.007Z,12.35
2019-02-28T09:12:22.248Z,12.43
2019-02-28T09:15:31.117Z,18.92
2019-02-28T09:18:40.737Z,17.62
2019-02-28T09:21:49.393Z,10.50
2019-02-28T09:24:57.272Z,14.43
2019-02-28T09:28:06.011Z,16.42
2019-02-28T09:31:13.002Z,13.93
2019-02-28T09:34:19.965Z,13.80
2019-02-28T09:37:29.478Z,13.08
2019-02-28T09:40:35.778Z,15.23
2019-02-28T09:43:42.719Z,16.75
2019-02-28T09:46:50.685Z,16.48
2019-02-28T09:50:15.585Z,17.92
2019-02-28T09:53:22.495Z,12.75
2019-02-28T09:56:29.387Z,12.33
2019-02-28T09:59:37.684Z,12.55
2019-02-28T10:02:45.258Z,10.58
2019-02-28T10:05:52.141Z,14.13
2019-02-28T10:08:58.904Z,15.95
2019-02-28T10:12:07.843Z,12.82
2019-02-28T10:15:18.581Z,9.18
2019-02-28T10:18:25.676Z,15.32
2019-02-28T10:21:33.283Z,14.85
2019-02-28T10:24:42.136Z,13.68
2019-02-28T10:27:48.990Z,24.23
2019-02-28T10:30:55.836Z,19.23
2019-02-28T10:34:02.791Z,17.12
2019-02-28T10:37:09.901Z,17.23
2019-02-28T10:40:20.150Z,15.93
2019-02-28T10:43:27.168Z,18.40
2019-02-28T10:46:35.998Z,10.08
2019-02-28T10:50:43.002Z,12.73
2019-02-28T10:53:51.666Z,17.20
2019-02-28T10:56:58.654Z,16.32
2019-02-28T11:00:08.465Z,14.78
2019-02-28T11:03:16.116Z,17.50
2019-02-28T11:06:25.339Z,18.55
2019-02-28T11:09:31.941Z,17.48
2019-02-28T11:12:40.891Z,13.38
2019-02-28T11:15:49.254Z,16.93
2019-02-28T11:18:56.421Z,14.20
2019-02-28T11:22:04.915Z,15.38
2019-02-28T11:25:12.736Z,16.37
2019-02-28T11:28:20.342Z,22.25
2019-02-28T11:31:27.204Z,13.75
2019-02-28T11:34:34.173Z,19.80
2019-02-28T11:37:45.362Z,17.42
2019-02-28T11:40:57.049Z,13.32
2019-02-28T11:43:59.607Z,20.12
2019-02-28T11:47:11.137Z,17.85
2019-02-28T11:50:20.489Z,16.12
2019-02-28T11:53:28.010Z,16.65
2019-02-28T11:56:35.051Z,16.85
2019-02-28T11:59:42.140Z,14.23
2019-02-28T12:02:53.295Z,15.55
2019-02-28T12:05:58.751Z,18.17
2019-02-28T12:09:07.651Z,15.83
2019-02-28T12:12:14.957Z,15.55
2019-02-28T12:15:23.579Z,14.03
2019-02-28T12:18:31.949Z,16.37
2019-02-28T12:21:38.970Z,15.15
2019-02-28T12:24:45.930Z,17.07
2019-02-28T12:27:53.063Z,15.38
2019-02-28T12:31:00.250Z,20.68
2019-02-28T12:34:15.174Z,15.98
2019-02-28T12:37:23.119Z,12.73
2019-02-28T12:40:32.318Z,13.15
2019-02-28T12:43:40.608Z,10.80
2019-02-28T12:46:48.080Z,15.72
2019-02-28T12:49:57.902Z,17.10
2019-02-28T12:53:06.632Z,19.82
2019-02-28T12:56:14.263Z,17.77
2019-02-28T12:59:21.961Z,14.10
2019-02-28T13:02:30.218Z,21.95
2019-02-28T13:05:37.460Z,16.05
2019-02-28T13:08:44.435Z,14.35
2019-02-28T13:11:51.576Z,22.52
2019-02-28T13:14:58.379Z,20.05
2019-02-28T13:18:09.056Z,15.50
2019-02-28T13:21:17.767Z,22.45
2019-02-28T13:24:24.674Z,16.95
2019-02-28T13:27:32.220Z,21.55
2019-02-28T13:30:40.129Z,18.17
2019-02-28T13:33:48.598Z,15.85
2019-02-28T13:37:01.920Z,23.47
2019-02-28T13:40:08.400Z,13.75
2019-02-28T13:43:20.986Z,19.10
2019-02-28T13:46:24.441Z,17.42
2019-02-28T13:49:31.282Z,15.95
2019-02-28T13:52:38.297Z,10.93
2019-02-28T13:55:45.395Z,15.28
2019-02-28T13:58:53.672Z,12.53
2019-02-28T14:02:02.742Z,12.80
2019-02-28T14:05:12.149Z,14.60
2019-02-28T14:08:19.128Z,17.15
2019-02-28T14:11:26.231Z,17.90
2019-02-28T14:14:33.177Z,15.13
2019-02-28T14:17:40.293Z,19.75
2019-02-28T14:20:49.087Z,13.93
2019-02-28T14:23:56.785Z,10.72
2019-02-28T14:27:06.430Z,13.08
2019-02-28T14:30:14.396Z,18.17
2019-02-28T14:33:22.954Z,19.60
2019-02-28T14:36:30.914Z,15.78
2019-02-28T14:39:39.820Z,22.10
2019-02-28T14:42:49.109Z,22.00
2019-02-28T14:45:55.976Z,14.05
2019-02-28T14:49:04.607Z,14.43
2019-02-28T14:52:11.587Z,14.47
2019-02-28T14:55:18.855Z,16.17
2019-02-28T14:58:25.886Z,20.35
2019-02-28T15:01:32.885Z,21.60
2019-02-28T15:04:42.259Z,19.65
2019-02-28T15:07:48.435Z,22.80
2019-02-28T15:10:55.350Z,18.45
2019-02-28T15:14:02.721Z,16.80
2019-02-28T15:17:11.479Z,16.57
2019-02-28T15:20:19.092Z,16.25
2019-02-28T15:23:26.071Z,14.65
2019-02-28T15:26:33.300Z,19.17
2019-02-28T15:29:40.263Z,19.12
2019-02-28T15:32:47.079Z,18.85
2019-02-28T15:35:53.969Z,15.68
2019-02-28T15:39:01.017Z,17.50
2019-02-28T15:42:10.835Z,19.42
2019-02-28T15:45:17.850Z,18.67
2019-02-28T15:48:24.912Z,18.57
2019-02-28T15:51:32.090Z,20.08
2019-02-28T15:54:39.137Z,20.92
2019-02-28T15:57:46.225Z,19.20
2019-02-28T16:00:56.332Z,22.85
2019-02-28T16:04:02.481Z,18.80
2019-02-28T16:07:09.835Z,18.60
2019-02-28T16:10:20.317Z,20.65
2019-02-28T16:13:27.150Z,20.20
2019-02-28T16:16:34.488Z,22.13
2019-02-28T16:19:41.330Z,26.30
2019-02-28T16:22:52.079Z,18.52
2019-02-28T16:25:57.356Z,15.98
2019-02-28T16:29:06.651Z,21.77
2019-02-28T16:32:15.200Z,20.55
2019-02-28T16:35:22.520Z,19.57
2019-02-28T16:38:29.395Z,22.02
2019-02-28T16:41:36.929Z,22.75
2019-02-28T16:44:44.562Z,21.97
2019-02-28T16:47:51.493Z,21.52
2019-02-28T16:50:58.426Z,19.80
2019-02-28T16:54:09.627Z,16.00
2019-02-28T16:57:18.876Z,22.22
2019-02-28T17:00:25.911Z,17.75
2019-02-28T17:03:38.310Z,19.42
2019-02-28T17:06:45.704Z,21.10
2019-02-28T17:09:57.290Z,18.55
2019-02-28T17:13:29.750Z,19.67
2019-02-28T17:17:01.401Z,16.73
2019-02-28T17:20:12.545Z,19.92
2019-02-28T17:23:20.597Z,22.98
2019-02-28T17:26:52.045Z,22.50
2019-02-28T17:30:24.764Z,24.02
2019-02-28T17:33:33.418Z,18.73
2019-02-28T17:36:44.160Z,22.02
2019-02-28T17:39:51.062Z,22.65
2019-02-28T17:42:58.966Z,25.43
2019-02-28T17:46:07.691Z,28.10
2019-02-28T17:49:49.709Z,27.85
2019-02-28T17:53:55.090Z,23.80
2019-02-28T17:57:53.682Z,22.00
2019-02-28T18:01:46.437Z,26.42
2019-02-28T18:05:52.977Z,21.35
2019-02-28T18:09:58.985Z,21.02
2019-02-28T18:13:56.682Z,23.02
2019-02-28T18:18:32.764Z,25.30
2019-02-28T18:22:09.192Z,23.98
2019-02-28T18:26:38.699Z,23.65
2019-02-28T18:30:59.712Z,25.85
2019-02-28T18:34:17.033Z,24.47
2019-02-28T18:37:25.805Z,22.62
2019-02-28T18:40:32.813Z,22.95
2019-02-28T18:43:40.459Z,24.47
2019-02-28T18:46:49.128Z,24.85
2019-02-28T18:49:57.748Z,25.08
2019-02-28T18:53:08.918Z,22.98
2019-02-28T18:56:15.836Z,25.32
2019-02-28T18:59:22.877Z,24.57
2019-02-28T19:02:29.828Z,22.80
2019-02-28T19:05:36.845Z,24.65
2019-02-28T19:08:43.797Z,26.02
2019-02-28T19:11:50.941Z,23.50
2019-02-28T19:14:57.878Z,21.70
2019-02-28T19:18:05.111Z,24.30
2019-02-28T19:21:14.950Z,26.05
2019-02-28T19:24:21.998Z,23.40
2019-02-28T19:27:29.018Z,22.48
2019-02-28T19:30:37.063Z,22.58
2019-02-28T19:33:43.997Z,20.77
2019-02-28T19:36:50.960Z,20.92
2019-02-28T19:39:57.896Z,20.65
2019-02-28T19:43:06.121Z,20.75
2019-02-28T19:46:16.003Z,16.50
2019-02-28T19:49:22.924Z,23.75
2019-02-28T19:52:31.973Z,21.33
2019-02-28T19:55:38.945Z,19.20
2019-02-28T19:58:45.907Z,18.52
2019-02-28T20:01:53.146Z,20.15
2019-02-28T20:05:02.939Z,21.48
2019-02-28T20:08:13.792Z,19.05
2019-02-28T20:11:21.960Z,18.73
2019-02-28T20:14:29.019Z,18.37
2019-02-28T20:17:35.900Z,21.42
2019-02-28T20:20:42.871Z,22.95
2019-02-28T20:23:49.834Z,21.10
2019-02-28T20:26:56.772Z,21.12
2019-02-28T20:30:03.801Z,20.25
2019-02-28T20:33:13.242Z,22.40
2019-02-28T20:36:20.354Z,19.10
2019-02-28T20:39:27.247Z,17.60
2019-02-28T20:42:34.160Z,18.10
2019-02-28T20:45:41.200Z,20.23
2019-02-28T20:48:48.041Z,18.50
2019-02-28T20:51:55.530Z,16.52
2019-02-28T20:55:03.761Z,19.40
2019-02-28T20:58:12.043Z,16.73
2019-02-28T21:01:18.951Z,19.62
2019-02-28T21:04:25.900Z,19.07
2019-02-28T21:07:32.834Z,20.60
2019-02-28T21:10:40.928Z,16.85
2019-02-28T21:13:47.744Z,19.87
2019-02-28T21:16:54.722Z,17.07
2019-02-28T21:20:01.759Z,19.20
2019-02-28T21:23:10.652Z,18.70
2019-02-28T21:26:17.589Z,17.25
2019-02-28T21:29:24.411Z,18.50
2019-02-28T21:32:31.434Z,18.80
2019-02-28T21:35:38.597Z,19.48
2019-02-28T21:38:45.483Z,20.35
2019-02-28T21:41:52.486Z,20.08
2019-02-28T21:44:59.380Z,19.25
2019-02-28T21:48:06.684Z,24.10
2019-02-28T21:51:13.613Z,18.67
2019-02-28T21:54:20.595Z,19.55
2019-02-28T21:57:27.391Z,20.80
2019-02-28T22:00:34.466Z,23.80
2019-02-28T22:03:41.325Z,18.75
2019-02-28T22:06:48.247Z,18.85
2019-02-28T22:09:55.250Z,21.40
2019-02-28T22:13:02.354Z,18.57
2019-02-28T22:16:09.447Z,18.98
2019-02-28T22:19:16.402Z,23.18
2019-02-28T22:22:23.298Z,18.80
2019-02-28T22:25:30.288Z,16.95
2019-02-28T22:28:37.187Z,19.55
2019-02-28T22:31:54.103Z,19.30
2019-02-28T22:35:09.187Z,17.02
2019-02-28T22:38:16.464Z,22.48
2019-02-28T22:41:23.318Z,23.10
2019-02-28T22:44:30.328Z,26.00
2019-02-28T22:47:37.261Z,20.95
2019-02-28T22:50:44.077Z,16.85
2019-02-28T22:53:51.984Z,23.35
2019-02-28T22:56:59.126Z,25.92
2019-02-28T23:00:16.638Z,28.90
2019-02-28T23:03:25.041Z,26.90
2019-02-28T23:06:31.958Z,30.52
2019-02-28T23:09:38.778Z,31.27
2019-02-28T23:12:45.726Z,27.67
2019-02-28T23:15:52.589Z,31.97
2019-02-28T23:18:59.707Z,30.88
2019-02-28T23:22:06.821Z,27.35
2019-02-28T23:25:13.861Z,23.32
2019-02-28T23:28:30.470Z,32.73
2019-02-28T23:32:36.090Z,25.10
2019-02-28T23:35:45.705Z,32.98
2019-02-28T23:38:53.654Z,27.73
2019-02-28T23:42:00.669Z,31.33
2019-02-28T23:45:07.786Z,25.15
2019-02-28T23:48:14.834Z,25.00
2019-02-28T23:51:21.716Z,24.30
2019-02-28T23:54:28.787Z,25.77
2019-02-28T23:57:35.678Z,21.17
